Impacts METAR Board
IDs:

KSFO - San Francisco Intl, CA, US

Updated at: 1800 UTC 22 Sep 2018
Potential Impact None Slight Moderate High
Time 22/06Z 22/07Z 22/08Z 22/09Z 22/10Z 22/11Z 22/12Z 22/13Z 22/14Z 22/15Z 22/16Z 22/17Z 22/18Z
Temp55 55 52 52 53 52 52 52 55 56 56 58 59
Dewpt52 51 51 51 50 50 50 51 53 53 53 53 52
Altim29.99 29.99 29.99 29.99 29.98 29.98 29.98 29.98 29.98 29.99 29.99 30.00 30.00
VIS10 10 10 10 10 10 10 9 1.5 5 7 4 8
CIG-- -- -- -- -- -- 11 5 5 5 5 8 --
CoverFEWFEWFEWFEWFEWFEWOVCOVCOVCOVCOVCBKNFEW
FltCatVFRVFRVFRVFRVFRVFRMVFRIFRIFRIFRIFRIFRVFR
WX----------------BRBR--BR--
WDir290280280290290280290200000330330
WSpd5 7 11 10 11 8 6 3 0 0 3 4 6
WGst-- -- -- -- -- -- -- -- -- -- -- -- --
Raw hourly METARs
KSFO 220556Z 29005KT 10SM FEW003 13/11 A2999 RMK AO2 SLP155 T01280111 10178 20128 51011
KSFO 220656Z 28007KT 10SM FEW003 13/11 A2999 RMK AO2 SLP156 T01280106
KSFO 220756Z 28011KT 10SM FEW003 11/11 A2999 RMK AO2 SLP155 T01110106 402330111
KSFO 220856Z 29010KT 10SM FEW002 11/11 A2999 RMK AO2 SLP154 T01110106 58001
KSFO 220956Z 29011KT 10SM FEW003 12/10 A2998 RMK AO2 SLP152 T01170100
KSFO 221056Z 28008KT 10SM FEW003 11/10 A2998 RMK AO2 SLP150 T01110100
KSFO 221156Z 29006KT 10SM FEW005 OVC011 11/10 A2998 RMK AO2 SLP150 T01110100 10133 20111 56004
KSFO 221256Z 20003KT 9SM OVC005 11/11 A2998 RMK AO2 SLP150 T01110106
KSFO 221356Z 00000KT 1 1/2SM BR OVC005 13/12 A2998 RMK AO2 SLP152 T01280117
KSFO 221456Z 00000KT 5SM BR OVC005 13/12 A2999 RMK AO2 SLP155 T01330117 53005
KSFO 221556Z VRB03KT 7SM OVC005 13/12 A2999 RMK AO2 SLP156 T01330117
KSFO 221656Z COR 33004KT 4SM BR SCT006 BKN008 14/12 A3000 RMK AO2 SLP157 T01440117
KSFO 221756Z 33006KT 8SM FEW009 FEW200 15/11 A3000 RMK AO2 SLP157 T01500111 10150 20111 50002 $



Page loaded:  18:25 UTC  |   11:25 AM Pacific  |   12:25 PM Mountain  |   01:25 PM Central  |   02:25 PM Eastern

 

ADVISORIES

FORECASTS

FORECASTS

OBSERVATIONS

USER TOOLS

ABOUT US